sensor_id;sensor_type;location;lat;lon;timestamp;pressure;altitude;pressure_sealevel;temperature;humidity
37610;BME280;23457;51.966;8.230;2022-11-23T00:01:38;99092.66;;;8.93;94.25
37610;BME280;23457;51.966;8.230;2022-11-23T00:04:07;99096.16;;;8.71;95.48
37610;BME280;23457;51.966;8.230;2022-11-23T00:06:35;99091.81;;;8.75;95.85
37610;BME280;23457;51.966;8.230;2022-11-23T00:09:02;99089.22;;;8.79;95.12
37610;BME280;23457;51.966;8.230;2022-11-23T00:11:29;99084.06;;;8.85;94.46
37610;BME280;23457;51.966;8.230;2022-11-23T00:13:56;99090.91;;;8.95;94.55
37610;BME280;23457;51.966;8.230;2022-11-23T00:16:27;99093.50;;;8.94;94.83
37610;BME280;23457;51.966;8.230;2022-11-23T00:18:56;99095.31;;;8.68;95.54
37610;BME280;23457;51.966;8.230;2022-11-23T00:21:25;99099.56;;;8.93;95.44
37610;BME280;23457;51.966;8.230;2022-11-23T00:23:52;99098.66;;;9.00;95.50
37610;BME280;23457;51.966;8.230;2022-11-23T00:26:19;99103.91;;;8.74;96.45
37610;BME280;23457;51.966;8.230;2022-11-23T00:28:46;99107.38;;;8.85;96.26
37610;BME280;23457;51.966;8.230;2022-11-23T00:31:16;99103.84;;;9.00;96.20
37610;BME280;23457;51.966;8.230;2022-11-23T00:33:50;99112.53;;;8.79;97.84
37610;BME280;23457;51.966;8.230;2022-11-23T00:36:18;99097.91;;;8.66;99.81
37610;BME280;23457;51.966;8.230;2022-11-23T00:38:47;99085.78;;;8.76;99.56
37610;BME280;23457;51.966;8.230;2022-11-23T00:41:20;99096.09;;;8.95;99.36
37610;BME280;23457;51.966;8.230;2022-11-23T00:43:47;99086.69;;;8.73;100.00
37610;BME280;23457;51.966;8.230;2022-11-23T00:46:19;99100.41;;;8.89;100.00
37610;BME280;23457;51.966;8.230;2022-11-23T00:48:48;99102.22;;;8.72;100.00
37610;BME280;23457;51.966;8.230;2022-11-23T00:51:18;99110.84;;;8.71;100.00
37610;BME280;23457;51.966;8.230;2022-11-23T00:53:45;99098.69;;;8.89;100.00
37610;BME280;23457;51.966;8.230;2022-11-23T00:56:12;99108.22;;;8.80;100.00
37610;BME280;23457;51.966;8.230;2022-11-23T00:58:39;99101.28;;;8.92;100.00
37610;BME280;23457;51.966;8.230;2022-11-23T01:01:09;99102.97;;;9.03;100.00
37610;BME280;23457;51.966;8.230;2022-11-23T01:03:39;99102.19;;;8.82;100.00
37610;BME280;23457;51.966;8.230;2022-11-23T01:06:09;99108.19;;;8.89;100.00
37610;BME280;23457;51.966;8.230;2022-11-23T01:08:36;99094.44;;;8.67;100.00
37610;BME280;23457;51.966;8.230;2022-11-23T01:11:06;99090.97;;;8.80;100.00
37610;BME280;23457;51.966;8.230;2022-11-23T01:13:35;99105.63;;;8.75;100.00
37610;BME280;23457;51.966;8.230;2022-11-23T01:16:03;99096.13;;;8.83;100.00
37610;BME280;23457;51.966;8.230;2022-11-23T01:18:30;99100.41;;;8.92;100.00
37610;BME280;23457;51.966;8.230;2022-11-23T01:20:59;99106.50;;;8.80;100.00
37610;BME280;23457;51.966;8.230;2022-11-23T01:23:29;99108.19;;;8.90;100.00
37610;BME280;23457;51.966;8.230;2022-11-23T01:25:56;99086.66;;;8.81;100.00
37610;BME280;23457;51.966;8.230;2022-11-23T01:28:23;99103.03;;;8.83;100.00
37610;BME280;23457;51.966;8.230;2022-11-23T01:30:49;99103.06;;;8.68;100.00
37610;BME280;23457;51.966;8.230;2022-11-23T01:33:16;99102.19;;;8.79;100.00
37610;BME280;23457;51.966;8.230;2022-11-23T01:35:45;99106.47;;;8.95;100.00
37610;BME280;23457;51.966;8.230;2022-11-23T01:38:12;99106.41;;;9.09;100.00
37610;BME280;23457;51.966;8.230;2022-11-23T01:40:43;99108.16;;;9.03;100.00
37610;BME280;23457;51.966;8.230;2022-11-23T01:43:15;99123.66;;;9.16;100.00
37610;BME280;23457;51.966;8.230;2022-11-23T01:48:22;99128.94;;;8.78;100.00
37610;BME280;23457;51.966;8.230;2022-11-23T01:50:51;99128.91;;;8.87;100.00
37610;BME280;23457;51.966;8.230;2022-11-23T01:53:19;99117.63;;;9.13;100.00
37610;BME280;23457;51.966;8.230;2022-11-23T01:55:48;99121.06;;;9.21;100.00
37610;BME280;23457;51.966;8.230;2022-11-23T01:58:18;99116.78;;;9.00;100.00
37610;BME280;23457;51.966;8.230;2022-11-23T02:00:46;99121.94;;;9.14;100.00
37610;BME280;23457;51.966;8.230;2022-11-23T02:03:16;99117.66;;;9.11;99.58
37610;BME280;23457;51.966;8.230;2022-11-23T02:05:46;99096.94;;;9.01;100.00
37610;BME280;23457;51.966;8.230;2022-11-23T02:08:17;99114.16;;;9.18;99.78
37610;BME280;23457;51.966;8.230;2022-11-23T02:10:46;99120.25;;;9.05;100.00
37610;BME280;23457;51.966;8.230;2022-11-23T02:13:13;99121.94;;;9.21;99.60
37610;BME280;23457;51.966;8.230;2022-11-23T02:15:40;99120.19;;;9.17;100.00
37610;BME280;23457;51.966;8.230;2022-11-23T02:18:14;99115.03;;;9.13;100.00
37610;BME280;23457;51.966;8.230;2022-11-23T02:20:43;99115.88;;;9.24;99.46
37610;BME280;23457;51.966;8.230;2022-11-23T02:23:25;99127.16;;;9.08;99.37
37610;BME280;23457;51.966;8.230;2022-11-23T02:25:59;99134.06;;;8.99;100.00
37610;BME280;23457;51.966;8.230;2022-11-23T02:28:46;99124.56;;;9.06;100.00
37610;BME280;23457;51.966;8.230;2022-11-23T02:31:14;99124.59;;;8.98;100.00
37610;BME280;23457;51.966;8.230;2022-11-23T02:33:43;99134.94;;;9.06;99.73
37610;BME280;23457;51.966;8.230;2022-11-23T02:39:13;99139.22;;;9.18;100.00
37610;BME280;23457;51.966;8.230;2022-11-23T02:41:46;99134.88;;;9.23;100.00
37610;BME280;23457;51.966;8.230;2022-11-23T02:46:52;99139.22;;;9.15;100.00
37610;BME280;23457;51.966;8.230;2022-11-23T02:49:19;99131.44;;;9.19;100.00
37610;BME280;23457;51.966;8.230;2022-11-23T02:51:46;99139.22;;;9.21;100.00
37610;BME280;23457;51.966;8.230;2022-11-23T02:54:13;99146.13;;;9.19;100.00
37610;BME280;23457;51.966;8.230;2022-11-23T02:56:39;99131.44;;;9.21;100.00
37610;BME280;23457;51.966;8.230;2022-11-23T02:59:07;99146.06;;;9.32;100.00
37610;BME280;23457;51.966;8.230;2022-11-23T03:01:34;99144.38;;;9.21;100.00
37610;BME280;23457;51.966;8.230;2022-11-23T03:04:01;99151.25;;;9.31;100.00
37610;BME280;23457;51.966;8.230;2022-11-23T03:06:28;99149.56;;;9.21;100.00
37610;BME280;23457;51.966;8.230;2022-11-23T03:08:55;99153.84;;;9.26;100.00
37610;BME280;23457;51.966;8.230;2022-11-23T03:11:22;99157.31;;;9.30;100.00
37610;BME280;23457;51.966;8.230;2022-11-23T03:13:48;99155.56;;;9.35;100.00
37610;BME280;23457;51.966;8.230;2022-11-23T03:16:19;99165.94;;;9.30;100.00
37610;BME280;23457;51.966;8.230;2022-11-23T03:18:46;99166.81;;;9.31;100.00
37610;BME280;23457;51.966;8.230;2022-11-23T03:21:13;99159.03;;;9.25;100.00
37610;BME280;23457;51.966;8.230;2022-11-23T03:23:40;99152.09;;;9.38;100.00
37610;BME280;23457;51.966;8.230;2022-11-23T03:26:09;99162.50;;;9.31;100.00
37610;BME280;23457;51.966;8.230;2022-11-23T03:28:48;99158.16;;;9.35;100.00
37610;BME280;23457;51.966;8.230;2022-11-23T03:31:15;99161.63;;;9.37;100.00
37610;BME280;23457;51.966;8.230;2022-11-23T03:33:42;99156.44;;;9.28;100.00
37610;BME280;23457;51.966;8.230;2022-11-23T03:36:09;99168.63;;;9.05;100.00
37610;BME280;23457;51.966;8.230;2022-11-23T03:38:46;99158.25;;;9.11;100.00
37610;BME280;23457;51.966;8.230;2022-11-23T03:41:36;99165.13;;;9.15;100.00
37610;BME280;23457;51.966;8.230;2022-11-23T03:44:03;99170.31;;;9.21;100.00
37610;BME280;23457;51.966;8.230;2022-11-23T03:46:29;99165.13;;;9.22;100.00
37610;BME280;23457;51.966;8.230;2022-11-23T03:48:56;99157.34;;;9.16;100.00
37610;BME280;23457;51.966;8.230;2022-11-23T03:51:23;99166.84;;;9.19;100.00
37610;BME280;23457;51.966;8.230;2022-11-23T03:53:49;99163.38;;;9.26;100.00
37610;BME280;23457;51.966;8.230;2022-11-23T03:56:16;99168.59;;;9.17;100.00
37610;BME280;23457;51.966;8.230;2022-11-23T03:58:45;99169.41;;;9.25;100.00
37610;BME280;23457;51.966;8.230;2022-11-23T04:01:12;99165.16;;;9.09;100.00
37610;BME280;23457;51.966;8.230;2022-11-23T04:03:42;99161.66;;;9.22;100.00
37610;BME280;23457;51.966;8.230;2022-11-23T04:06:16;99165.13;;;9.19;100.00
37610;BME280;23457;51.966;8.230;2022-11-23T04:09:02;99169.41;;;9.31;100.00
37610;BME280;23457;51.966;8.230;2022-11-23T04:11:41;99175.50;;;9.18;100.00
37610;BME280;23457;51.966;8.230;2022-11-23T04:14:08;99170.31;;;9.21;100.00
37610;BME280;23457;51.966;8.230;2022-11-23T04:16:35;99168.63;;;9.09;100.00
37610;BME280;23457;51.966;8.230;2022-11-23T04:19:03;99165.16;;;9.12;100.00
37610;BME280;23457;51.966;8.230;2022-11-23T04:21:30;99168.59;;;9.23;100.00
37610;BME280;23457;51.966;8.230;2022-11-23T04:23:57;99172.94;;;9.07;100.00
37610;BME280;23457;51.966;8.230;2022-11-23T04:26:25;99161.69;;;9.13;100.00
37610;BME280;23457;51.966;8.230;2022-11-23T04:28:52;99167.72;;;9.19;100.00
37610;BME280;23457;51.966;8.230;2022-11-23T04:31:19;99167.75;;;9.09;100.00
37610;BME280;23457;51.966;8.230;2022-11-23T04:33:57;99169.44;;;9.14;100.00
37610;BME280;23457;51.966;8.230;2022-11-23T04:36:24;99175.50;;;9.16;100.00
37610;BME280;23457;51.966;8.230;2022-11-23T04:38:52;99164.31;;;9.08;100.00
37610;BME280;23457;51.966;8.230;2022-11-23T04:41:28;99159.13;;;9.11;100.00
37610;BME280;23457;51.966;8.230;2022-11-23T04:43:56;99163.44;;;9.06;100.00
37610;BME280;23457;51.966;8.230;2022-11-23T04:46:23;99153.03;;;9.17;100.00
37610;BME280;23457;51.966;8.230;2022-11-23T04:48:50;99142.78;;;8.83;100.00
37610;BME280;23457;51.966;8.230;2022-11-23T04:51:17;99159.97;;;9.03;100.00
37610;BME280;23457;51.966;8.230;2022-11-23T04:53:44;99167.75;;;9.12;100.00
37610;BME280;23457;51.966;8.230;2022-11-23T04:56:12;99176.38;;;9.12;100.00
37610;BME280;23457;51.966;8.230;2022-11-23T04:58:41;99169.47;;;9.04;100.00
37610;BME280;23457;51.966;8.230;2022-11-23T05:01:08;99177.25;;;9.01;100.00
37610;BME280;23457;51.966;8.230;2022-11-23T05:03:45;99177.22;;;9.19;100.00
37610;BME280;23457;51.966;8.230;2022-11-23T05:06:12;99173.81;;;9.08;100.00
37610;BME280;23457;51.966;8.230;2022-11-23T05:08:41;99181.59;;;8.88;100.00
37610;BME280;23457;51.966;8.230;2022-11-23T05:11:25;99191.06;;;9.03;100.00
37610;BME280;23457;51.966;8.230;2022-11-23T05:13:55;99186.72;;;9.15;100.00
37610;BME280;23457;51.966;8.230;2022-11-23T05:16:21;99180.69;;;9.18;100.00
37610;BME280;23457;51.966;8.230;2022-11-23T05:18:48;99188.47;;;9.18;100.00
37610;BME280;23457;51.966;8.230;2022-11-23T05:21:15;99180.72;;;9.06;100.00
37610;BME280;23457;51.966;8.230;2022-11-23T05:23:42;99181.53;;;9.18;100.00
37610;BME280;23457;51.966;8.230;2022-11-23T05:26:09;99180.72;;;8.99;100.00
37610;BME280;23457;51.966;8.230;2022-11-23T05:28:36;99186.75;;;9.03;100.00
37610;BME280;23457;51.966;8.230;2022-11-23T05:31:10;99191.00;;;9.27;100.00
37610;BME280;23457;51.966;8.230;2022-11-23T05:33:37;99192.84;;;8.97;100.00
37610;BME280;23457;51.966;8.230;2022-11-23T05:36:06;99199.72;;;9.11;100.00
37610;BME280;23457;51.966;8.230;2022-11-23T05:38:36;99200.59;;;9.10;100.00
37610;BME280;23457;51.966;8.230;2022-11-23T05:41:09;99202.28;;;9.15;100.00
37610;BME280;23457;51.966;8.230;2022-11-23T05:43:39;99204.03;;;9.12;100.00
37610;BME280;23457;51.966;8.230;2022-11-23T05:46:08;99191.06;;;9.18;100.00
37610;BME280;23457;51.966;8.230;2022-11-23T05:48:36;99206.59;;;9.24;100.00
37610;BME280;23457;51.966;8.230;2022-11-23T05:51:08;99204.88;;;9.14;100.00
37610;BME280;23457;51.966;8.230;2022-11-23T05:53:40;99204.91;;;9.08;100.00
37610;BME280;23457;51.966;8.230;2022-11-23T05:56:14;99209.19;;;9.22;100.00
37610;BME280;23457;51.966;8.230;2022-11-23T05:58:55;99199.69;;;9.14;100.00
37610;BME280;23457;51.966;8.230;2022-11-23T06:01:22;99210.06;;;9.17;100.00
37610;BME280;23457;51.966;8.230;2022-11-23T06:03:52;99194.53;;;9.11;100.00
37610;BME280;23457;51.966;8.230;2022-11-23T06:06:19;99202.31;;;9.09;100.00
37610;BME280;23457;51.966;8.230;2022-11-23T06:08:46;99209.22;;;9.06;100.00
37610;BME280;23457;51.966;8.230;2022-11-23T06:11:15;99209.22;;;9.04;100.00
37610;BME280;23457;51.966;8.230;2022-11-23T06:13:46;99210.06;;;9.17;100.00
37610;BME280;23457;51.966;8.230;2022-11-23T06:16:14;99210.06;;;9.14;100.00
37610;BME280;23457;51.966;8.230;2022-11-23T06:18:52;99211.78;;;9.16;100.00
37610;BME280;23457;51.966;8.230;2022-11-23T06:21:19;99202.34;;;8.95;100.00
37610;BME280;23457;51.966;8.230;2022-11-23T06:23:46;99204.88;;;9.14;100.00
37610;BME280;23457;51.966;8.230;2022-11-23T06:26:13;99196.25;;;9.12;100.00
37610;BME280;23457;51.966;8.230;2022-11-23T06:28:41;99188.50;;;8.93;100.00
37610;BME280;23457;51.966;8.230;2022-11-23T06:31:08;99214.38;;;9.24;100.00
37610;BME280;23457;51.966;8.230;2022-11-23T06:33:36;99216.97;;;9.21;100.00
37610;BME280;23457;51.966;8.230;2022-11-23T06:36:03;99210.09;;;9.05;100.00
37610;BME280;23457;51.966;8.230;2022-11-23T06:38:36;99209.22;;;8.99;100.00
37610;BME280;23457;51.966;8.230;2022-11-23T06:41:09;99208.31;;;9.13;100.00
37610;BME280;23457;51.966;8.230;2022-11-23T06:43:36;99218.69;;;9.19;100.00
37610;BME280;23457;51.966;8.230;2022-11-23T06:46:04;99213.50;;;9.13;100.00
37610;BME280;23457;51.966;8.230;2022-11-23T06:48:35;99222.19;;;9.09;100.00
37610;BME280;23457;51.966;8.230;2022-11-23T06:51:03;99216.97;;;9.24;100.00
37610;BME280;23457;51.966;8.230;2022-11-23T06:53:30;99221.31;;;9.02;100.00
37610;BME280;23457;51.966;8.230;2022-11-23T06:56:01;99223.91;;;8.90;100.00
37610;BME280;23457;51.966;8.230;2022-11-23T06:58:30;99231.69;;;8.91;100.00
37610;BME280;23457;51.966;8.230;2022-11-23T07:01:00;99228.25;;;8.97;100.00
37610;BME280;23457;51.966;8.230;2022-11-23T07:03:32;99234.28;;;9.07;100.00
37610;BME280;23457;51.966;8.230;2022-11-23T07:06:05;99232.56;;;8.93;100.00
37610;BME280;23457;51.966;8.230;2022-11-23T07:08:34;99245.50;;;9.07;100.00
37610;BME280;23457;51.966;8.230;2022-11-23T07:11:13;99242.00;;;9.32;100.00
37610;BME280;23457;51.966;8.230;2022-11-23T07:13:40;99232.47;;;9.39;100.00
37610;BME280;23457;51.966;8.230;2022-11-23T07:16:07;99233.34;;;9.33;100.00
37610;BME280;23457;51.966;8.230;2022-11-23T07:18:35;99242.88;;;9.33;100.00
37610;BME280;23457;51.966;8.230;2022-11-23T07:21:02;99248.88;;;9.38;100.00
37610;BME280;23457;51.966;8.230;2022-11-23T07:23:29;99245.47;;;9.25;100.00
37610;BME280;23457;51.966;8.230;2022-11-23T07:25:55;99241.13;;;9.35;100.00
37610;BME280;23457;51.966;8.230;2022-11-23T07:28:22;99245.47;;;9.34;100.00
37610;BME280;23457;51.966;8.230;2022-11-23T07:30:49;99247.97;;;9.51;100.00
37610;BME280;23457;51.966;8.230;2022-11-23T07:33:18;99247.16;;;9.40;100.00
37610;BME280;23457;51.966;8.230;2022-11-23T07:35:45;99251.47;;;9.41;100.00
37610;BME280;23457;51.966;8.230;2022-11-23T07:38:13;99254.97;;;9.26;100.00
37610;BME280;23457;51.966;8.230;2022-11-23T07:40:41;99248.91;;;9.33;100.00
37610;BME280;23457;51.966;8.230;2022-11-23T07:43:19;99269.69;;;9.09;100.00
37610;BME280;23457;51.966;8.230;2022-11-23T07:45:48;99261.91;;;9.21;100.00
37610;BME280;23457;51.966;8.230;2022-11-23T07:48:15;99263.66;;;9.12;100.00
37610;BME280;23457;51.966;8.230;2022-11-23T07:50:42;99273.13;;;9.23;100.00
37610;BME280;23457;51.966;8.230;2022-11-23T07:53:09;99263.63;;;9.21;100.00
37610;BME280;23457;51.966;8.230;2022-11-23T07:55:35;99259.28;;;9.30;100.00
37610;BME280;23457;51.966;8.230;2022-11-23T07:58:02;99266.16;;;9.38;100.00
37610;BME280;23457;51.966;8.230;2022-11-23T08:00:30;99261.84;;;9.47;100.00
37610;BME280;23457;51.966;8.230;2022-11-23T08:02:57;99278.25;;;9.52;100.00
37610;BME280;23457;51.966;8.230;2022-11-23T08:05:44;99280.84;;;9.55;100.00
37610;BME280;23457;51.966;8.230;2022-11-23T08:08:11;99280.84;;;9.52;100.00
37610;BME280;23457;51.966;8.230;2022-11-23T08:10:37;99276.53;;;9.39;100.00
37610;BME280;23457;51.966;8.230;2022-11-23T08:13:10;99292.13;;;9.36;100.00
37610;BME280;23457;51.966;8.230;2022-11-23T08:15:37;99284.28;;;9.53;100.00
37610;BME280;23457;51.966;8.230;2022-11-23T08:18:04;99291.22;;;9.55;100.00
37610;BME280;23457;51.966;8.230;2022-11-23T08:20:31;99285.19;;;9.46;100.00
37610;BME280;23457;51.966;8.230;2022-11-23T08:22:58;99298.13;;;9.53;100.00
37610;BME280;23457;51.966;8.230;2022-11-23T08:25:26;99290.34;;;9.52;99.77
37610;BME280;23457;51.966;8.230;2022-11-23T08:27:58;99283.44;;;9.58;99.37
37610;BME280;23457;51.966;8.230;2022-11-23T08:30:25;99294.69;;;9.48;99.83
37610;BME280;23457;51.966;8.230;2022-11-23T08:32:52;99292.94;;;9.53;100.00
37610;BME280;23457;51.966;8.230;2022-11-23T08:35:20;99304.19;;;9.46;100.00
37610;BME280;23457;51.966;8.230;2022-11-23T08:37:46;99304.13;;;9.70;100.00
37610;BME280;23457;51.966;8.230;2022-11-23T08:40:14;99299.81;;;9.73;99.86
37610;BME280;23457;51.966;8.230;2022-11-23T08:42:45;99312.75;;;9.76;100.00
37610;BME280;23457;51.966;8.230;2022-11-23T08:45:12;99301.59;;;9.61;100.00
37610;BME280;23457;51.966;8.230;2022-11-23T08:47:39;99292.94;;;9.59;100.00
37610;BME280;23457;51.966;8.230;2022-11-23T08:50:09;99302.38;;;9.80;99.60
37610;BME280;23457;51.966;8.230;2022-11-23T08:52:44;99298.06;;;9.78;99.31
37610;BME280;23457;51.966;8.230;2022-11-23T08:55:11;99304.97;;;9.85;100.00
37610;BME280;23457;51.966;8.230;2022-11-23T08:57:39;99306.66;;;9.89;99.81
37610;BME280;23457;51.966;8.230;2022-11-23T09:00:06;99298.00;;;9.93;99.55
37610;BME280;23457;51.966;8.230;2022-11-23T09:02:32;99301.50;;;9.86;99.43
37610;BME280;23457;51.966;8.230;2022-11-23T09:04:59;99298.13;;;9.62;99.37
37610;BME280;23457;51.966;8.230;2022-11-23T09:07:26;99303.19;;;9.96;99.01
37610;BME280;23457;51.966;8.230;2022-11-23T09:09:53;99313.53;;;10.05;97.82
37610;BME280;23457;51.966;8.230;2022-11-23T09:12:19;99308.31;;;10.11;97.48
37610;BME280;23457;51.966;8.230;2022-11-23T09:14:46;99310.03;;;10.18;96.28
37610;BME280;23457;51.966;8.230;2022-11-23T09:17:12;99308.25;;;10.26;96.06
37610;BME280;23457;51.966;8.230;2022-11-23T09:19:39;99299.56;;;10.33;95.72
37610;BME280;23457;51.966;8.230;2022-11-23T09:22:05;99299.59;;;10.30;95.44
37610;BME280;23457;51.966;8.230;2022-11-23T09:24:32;99307.28;;;10.46;94.83
37610;BME280;23457;51.966;8.230;2022-11-23T09:26:59;99306.44;;;10.44;95.23
37610;BME280;23457;51.966;8.230;2022-11-23T09:29:26;99306.41;;;10.50;94.21
37610;BME280;23457;51.966;8.230;2022-11-23T09:31:53;99302.91;;;10.54;93.33
37610;BME280;23457;51.966;8.230;2022-11-23T09:34:20;99309.81;;;10.59;93.44
37610;BME280;23457;51.966;8.230;2022-11-23T09:36:48;99295.88;;;10.69;92.69
37610;BME280;23457;51.966;8.230;2022-11-23T09:39:15;99313.28;;;10.60;92.38
37610;BME280;23457;51.966;8.230;2022-11-23T09:41:48;99311.53;;;10.59;91.89
37610;BME280;23457;51.966;8.230;2022-11-23T09:50:22;99309.72;;;10.73;91.56
37610;BME280;23457;51.966;8.230;2022-11-23T09:52:52;99322.66;;;10.81;89.28
37610;BME280;23457;51.966;8.230;2022-11-23T09:55:39;99319.25;;;10.75;88.86
37610;BME280;23457;51.966;8.230;2022-11-23T09:58:12;99309.53;;;10.97;89.37
37610;BME280;23457;51.966;8.230;2022-11-23T10:00:48;99317.22;;;11.11;88.71
37610;BME280;23457;51.966;8.230;2022-11-23T10:03:17;99314.91;;;10.76;88.89
37610;BME280;23457;51.966;8.230;2022-11-23T10:05:52;99298.38;;;10.85;89.09
37610;BME280;23457;51.966;8.230;2022-11-23T10:08:48;99310.44;;;10.93;88.00
37610;BME280;23457;51.966;8.230;2022-11-23T10:11:30;99306.06;;;11.00;87.39
37610;BME280;23457;51.966;8.230;2022-11-23T10:17:16;99301.56;;;11.16;86.64
37610;BME280;23457;51.966;8.230;2022-11-23T10:22:52;99291.88;;;11.31;84.06
37610;BME280;23457;51.966;8.230;2022-11-23T10:25:23;99298.81;;;11.32;84.00
37610;BME280;23457;51.966;8.230;2022-11-23T10:27:57;99295.59;;;11.07;84.67
37610;BME280;23457;51.966;8.230;2022-11-23T10:30:25;99283.19;;;11.34;84.29
37610;BME280;23457;51.966;8.230;2022-11-23T10:33:16;99287.50;;;11.38;83.97
37610;BME280;23457;51.966;8.230;2022-11-23T10:35:47;99289.06;;;11.54;81.28
37610;BME280;23457;51.966;8.230;2022-11-23T10:38:18;99280.44;;;11.49;81.03
37610;BME280;23457;51.966;8.230;2022-11-23T10:41:01;99276.13;;;11.48;79.91
37610;BME280;23457;51.966;8.230;2022-11-23T10:43:34;99286.44;;;11.54;78.60
37610;BME280;23457;51.966;8.230;2022-11-23T10:48:50;99289.03;;;11.57;76.71
37610;BME280;23457;51.966;8.230;2022-11-23T10:53:55;99284.81;;;11.44;76.04
37610;BME280;23457;51.966;8.230;2022-11-23T10:56:30;99285.41;;;11.76;75.44
37610;BME280;23457;51.966;8.230;2022-11-23T10:58:58;99280.31;;;11.61;75.58
37610;BME280;23457;51.966;8.230;2022-11-23T11:01:27;99288.00;;;11.73;73.78
37610;BME280;23457;51.966;8.230;2022-11-23T11:04:00;99270.91;;;11.51;74.20
37610;BME280;23457;51.966;8.230;2022-11-23T11:06:31;99294.00;;;11.80;74.01
37610;BME280;23457;51.966;8.230;2022-11-23T11:09:03;99279.16;;;11.90;71.95
37610;BME280;23457;51.966;8.230;2022-11-23T11:11:44;99287.00;;;11.85;70.54
37610;BME280;23457;51.966;8.230;2022-11-23T11:14:17;99300.88;;;11.87;71.11
37610;BME280;23457;51.966;8.230;2022-11-23T11:19:25;99293.09;;;11.86;71.48
37610;BME280;23457;51.966;8.230;2022-11-23T11:21:52;99287.91;;;11.82;72.13
37610;BME280;23457;51.966;8.230;2022-11-23T11:27:01;99276.31;;;12.06;71.21
37610;BME280;23457;51.966;8.230;2022-11-23T11:29:36;99285.69;;;12.21;70.47
37610;BME280;23457;51.966;8.230;2022-11-23T11:37:42;99287.44;;;12.19;71.40
37610;BME280;23457;51.966;8.230;2022-11-23T11:45:41;99265.94;;;12.05;69.00
37610;BME280;23457;51.966;8.230;2022-11-23T11:48:39;99259.41;;;12.39;68.92
37610;BME280;23457;51.966;8.230;2022-11-23T11:51:12;99278.03;;;12.70;69.41
37610;BME280;23457;51.966;8.230;2022-11-23T11:58:55;99275.13;;;12.30;70.22
37610;BME280;23457;51.966;8.230;2022-11-23T12:01:33;99262.94;;;12.34;68.98
37610;BME280;23457;51.966;8.230;2022-11-23T12:04:11;99259.97;;;11.97;67.83
37610;BME280;23457;51.966;8.230;2022-11-23T12:06:42;99270.19;;;12.12;67.41
37610;BME280;23457;51.966;8.230;2022-11-23T12:09:15;99269.63;;;11.89;68.57
37610;BME280;23457;51.966;8.230;2022-11-23T12:11:44;99267.06;;;11.86;69.09
37610;BME280;23457;51.966;8.230;2022-11-23T12:14:12;99265.94;;;12.03;69.31
37610;BME280;23457;51.966;8.230;2022-11-23T12:19:20;99254.25;;;12.33;69.95
37610;BME280;23457;51.966;8.230;2022-11-23T12:27:50;99247.06;;;12.50;67.57
37610;BME280;23457;51.966;8.230;2022-11-23T12:41:21;99242.50;;;12.66;63.53
37610;BME280;23457;51.966;8.230;2022-11-23T12:49:35;99234.91;;;12.51;64.46
37610;BME280;23457;51.966;8.230;2022-11-23T12:55:01;99232.50;;;12.37;64.79
37610;BME280;23457;51.966;8.230;2022-11-23T12:57:43;99225.06;;;12.10;65.28
37610;BME280;23457;51.966;8.230;2022-11-23T13:00:17;99218.47;;;12.46;64.17
37610;BME280;23457;51.966;8.230;2022-11-23T13:16:23;99233.28;;;12.42;63.49
37610;BME280;23457;51.966;8.230;2022-11-23T13:19:01;99239.16;;;12.55;62.49
37610;BME280;23457;51.966;8.230;2022-11-23T13:21:44;99239.84;;;12.68;62.18
37610;BME280;23457;51.966;8.230;2022-11-23T13:24:27;99210.13;;;12.23;62.41
37610;BME280;23457;51.966;8.230;2022-11-23T13:40:33;99250.56;;;11.87;62.73
37610;BME280;23457;51.966;8.230;2022-11-23T13:43:15;99238.75;;;11.54;63.10
37610;BME280;23457;51.966;8.230;2022-11-23T13:45:43;99234.19;;;11.74;62.39
37610;BME280;23457;51.966;8.230;2022-11-23T13:48:12;99249.69;;;11.86;61.67
37610;BME280;23457;51.966;8.230;2022-11-23T13:51:00;99249.50;;;12.03;61.62
37610;BME280;23457;51.966;8.230;2022-11-23T13:53:34;99253.22;;;11.80;62.61
37610;BME280;23457;51.966;8.230;2022-11-23T13:56:31;99239.41;;;11.74;62.66
37610;BME280;23457;51.966;8.230;2022-11-23T14:04:27;99244.41;;;11.91;62.75
37610;BME280;23457;51.966;8.230;2022-11-23T14:09:30;99226.72;;;11.45;63.53
37610;BME280;23457;51.966;8.230;2022-11-23T14:14:43;99227.19;;;11.80;62.11
37610;BME280;23457;51.966;8.230;2022-11-23T14:34:37;99210.25;;;11.43;64.60
37610;BME280;23457;51.966;8.230;2022-11-23T14:42:59;99205.28;;;11.26;65.14
37610;BME280;23457;51.966;8.230;2022-11-23T14:45:30;99206.16;;;11.22;64.43
37610;BME280;23457;51.966;8.230;2022-11-23T14:48:21;99201.94;;;11.13;64.37
37610;BME280;23457;51.966;8.230;2022-11-23T14:51:05;99196.81;;;11.04;65.42
37610;BME280;23457;51.966;8.230;2022-11-23T14:53:55;99202.19;;;10.86;66.02
37610;BME280;23457;51.966;8.230;2022-11-23T14:56:32;99197.97;;;10.74;66.73
37610;BME280;23457;51.966;8.230;2022-11-23T14:59:06;99184.03;;;10.83;65.11
37610;BME280;23457;51.966;8.230;2022-11-23T15:01:35;99179.94;;;10.58;65.83
37610;BME280;23457;51.966;8.230;2022-11-23T15:04:08;99200.72;;;10.53;66.10
37610;BME280;23457;51.966;8.230;2022-11-23T15:06:39;99207.63;;;10.62;66.46
37610;BME280;23457;51.966;8.230;2022-11-23T15:14:33;99205.03;;;10.57;66.48
37610;BME280;23457;51.966;8.230;2022-11-23T15:17:15;99214.66;;;10.46;67.35
37610;BME280;23457;51.966;8.230;2022-11-23T15:19:42;99202.81;;;9.98;68.27
37610;BME280;23457;51.966;8.230;2022-11-23T15:22:14;99218.28;;;10.16;67.90
37610;BME280;23457;51.966;8.230;2022-11-23T15:24:42;99211.38;;;10.21;67.90
37610;BME280;23457;51.966;8.230;2022-11-23T15:27:13;99216.50;;;10.30;67.80
37610;BME280;23457;51.966;8.230;2022-11-23T15:29:50;99211.41;;;10.12;68.64
37610;BME280;23457;51.966;8.230;2022-11-23T15:35:02;99228.00;;;9.79;69.96
37610;BME280;23457;51.966;8.230;2022-11-23T15:37:30;99245.34;;;9.71;71.21
37610;BME280;23457;51.966;8.230;2022-11-23T15:39:59;99238.38;;;9.81;71.53
37610;BME280;23457;51.966;8.230;2022-11-23T15:42:26;99246.13;;;9.87;70.88
37610;BME280;23457;51.966;8.230;2022-11-23T15:44:54;99238.38;;;9.84;71.29